createdAt,value
2022-12-13T00:02:07.489Z,20.10
2022-12-13T00:04:37.468Z,20.10
2022-12-13T00:07:07.429Z,20.10
2022-12-13T00:09:38.495Z,20.10
2022-12-13T00:12:08.447Z,20.10
2022-12-13T00:14:38.432Z,20.10
2022-12-13T00:17:09.262Z,20.10
2022-12-13T00:19:39.340Z,20.10
2022-12-13T00:22:09.222Z,20.10
2022-12-13T00:24:42.938Z,20.10
2022-12-13T00:27:16.032Z,20.10
2022-12-13T00:29:45.899Z,20.10
2022-12-13T00:32:15.834Z,20.20
2022-12-13T00:34:45.784Z,20.20
2022-12-13T00:37:15.745Z,20.10
2022-12-13T00:39:45.620Z,20.20
2022-12-13T00:42:15.514Z,20.20
2022-12-13T00:44:45.441Z,20.20
2022-12-13T00:47:15.389Z,20.10
2022-12-13T00:49:45.291Z,20.20
2022-12-13T00:52:15.517Z,20.20
2022-12-13T00:54:45.419Z,20.20
2022-12-13T00:57:15.440Z,20.20
2022-12-13T00:59:45.298Z,20.30
2022-12-13T01:02:15.316Z,20.20
2022-12-13T01:04:45.338Z,20.30
2022-12-13T01:07:15.249Z,20.30
2022-12-13T01:09:45.299Z,20.30
2022-12-13T01:12:15.348Z,20.40
2022-12-13T01:14:45.292Z,20.40
2022-12-13T01:17:15.924Z,20.50
2022-12-13T01:19:45.913Z,20.50
2022-12-13T01:22:15.823Z,20.50
2022-12-13T01:24:45.684Z,20.60
2022-12-13T01:27:15.584Z,20.60
2022-12-13T01:29:45.470Z,20.60
2022-12-13T01:32:15.324Z,20.70
2022-12-13T01:34:45.259Z,20.70
2022-12-13T01:37:15.100Z,20.70
2022-12-13T01:39:44.992Z,20.80
2022-12-13T01:42:17.100Z,20.80
2022-12-13T01:45:08.167Z,20.90
2022-12-13T01:47:47.873Z,20.90
2022-12-13T01:50:28.673Z,21.00
2022-12-13T01:53:00.188Z,21.00
2022-12-13T01:55:41.489Z,21.00
2022-12-13T01:58:12.303Z,21.10
2022-12-13T02:00:43.557Z,21.10
2022-12-13T02:03:21.231Z,21.10
2022-12-13T02:06:04.634Z,21.20
2022-12-13T02:08:36.042Z,21.20
2022-12-13T02:11:07.323Z,21.30
2022-12-13T02:13:36.849Z,21.30
2022-12-13T02:16:40.604Z,21.30
2022-12-13T02:19:50.054Z,21.40
2022-12-13T02:22:53.133Z,21.40
2022-12-13T02:26:01.346Z,21.50
2022-12-13T02:29:10.349Z,21.50
2022-12-13T02:32:04.654Z,21.50
2022-12-13T02:34:58.930Z,21.50
2022-12-13T02:37:55.064Z,21.60
2022-12-13T02:40:40.106Z,21.70
2022-12-13T02:43:16.659Z,21.80
2022-12-13T02:45:56.233Z,21.80
2022-12-13T02:48:32.021Z,21.80
2022-12-13T02:51:04.558Z,21.90
2022-12-13T02:53:36.119Z,21.90
2022-12-13T02:56:06.093Z,22.00
2022-12-13T02:58:39.684Z,22.00
2022-12-13T03:01:41.693Z,22.10
2022-12-13T03:04:37.762Z,22.10
2022-12-13T03:07:27.813Z,22.20
2022-12-13T03:10:10.477Z,22.30
2022-12-13T03:13:16.146Z,22.30
2022-12-13T03:16:24.861Z,22.40
2022-12-13T03:18:57.191Z,22.50
2022-12-13T03:21:28.195Z,22.50
2022-12-13T03:23:58.060Z,22.60
2022-12-13T03:26:28.915Z,22.70
2022-12-13T03:28:58.818Z,22.70
2022-12-13T03:31:28.824Z,22.80
2022-12-13T03:33:58.774Z,22.80
2022-12-13T03:36:29.263Z,22.80
2022-12-13T03:38:59.310Z,22.90
2022-12-13T03:41:34.492Z,22.90
2022-12-13T03:44:09.562Z,23.00
2022-12-13T03:46:39.699Z,23.10
2022-12-13T03:49:13.594Z,23.10
2022-12-13T03:51:47.173Z,23.20
2022-12-13T03:54:17.153Z,23.20
2022-12-13T03:56:47.038Z,23.30
2022-12-13T03:59:17.004Z,23.30
2022-12-13T04:01:46.877Z,23.30
2022-12-13T04:04:16.839Z,23.40
2022-12-13T04:06:46.753Z,23.40
2022-12-13T04:09:16.661Z,23.50
2022-12-13T04:12:06.185Z,23.50
2022-12-13T04:14:36.060Z,23.60
2022-12-13T04:17:05.943Z,23.60
2022-12-13T04:19:35.867Z,23.70
2022-12-13T04:22:06.159Z,23.70
2022-12-13T04:24:35.683Z,23.70
2022-12-13T04:27:05.469Z,23.80
2022-12-13T04:29:35.181Z,23.80
2022-12-13T04:32:26.395Z,23.90
2022-12-13T04:35:01.018Z,24.00
2022-12-13T04:37:31.960Z,24.00
2022-12-13T04:40:01.586Z,24.00
2022-12-13T04:42:31.217Z,24.00
2022-12-13T04:45:00.925Z,24.00
2022-12-13T04:47:30.463Z,24.00
2022-12-13T04:50:00.151Z,24.10
2022-12-13T04:52:29.823Z,24.20
2022-12-13T04:54:59.352Z,24.20
2022-12-13T04:57:29.024Z,24.30
2022-12-13T04:59:58.611Z,24.30
2022-12-13T05:02:28.385Z,24.30
2022-12-13T05:04:57.939Z,24.30
2022-12-13T05:07:28.938Z,24.40
2022-12-13T05:09:58.545Z,24.30
2022-12-13T05:12:28.143Z,24.40
2022-12-13T05:14:57.856Z,24.40
2022-12-13T05:17:27.424Z,24.50
2022-12-13T05:19:57.261Z,24.50
2022-12-13T05:22:28.416Z,24.60
2022-12-13T05:24:58.361Z,24.70
2022-12-13T05:27:28.321Z,24.70
2022-12-13T05:30:02.857Z,24.70
2022-12-13T05:32:43.895Z,24.80
2022-12-13T05:35:21.655Z,24.90
2022-12-13T05:37:55.098Z,24.90
2022-12-13T05:40:29.982Z,25.00
2022-12-13T05:43:01.987Z,25.00
2022-12-13T05:45:34.272Z,25.10
2022-12-13T05:48:04.328Z,25.10
2022-12-13T05:50:34.247Z,25.10
2022-12-13T05:53:05.542Z,25.10
2022-12-13T05:55:35.699Z,25.10
2022-12-13T05:58:05.668Z,25.20
2022-12-13T06:00:43.353Z,25.20
2022-12-13T06:03:13.351Z,25.30
2022-12-13T06:05:45.496Z,25.30
2022-12-13T06:08:24.588Z,25.40
2022-12-13T06:11:09.995Z,25.40
2022-12-13T06:13:42.821Z,25.50
2022-12-13T06:16:22.468Z,25.50
2022-12-13T06:19:03.129Z,25.50
2022-12-13T06:21:41.457Z,25.50
2022-12-13T06:24:22.504Z,25.60
2022-12-13T06:26:53.273Z,25.70
2022-12-13T06:29:25.754Z,25.70
2022-12-13T06:32:02.417Z,25.70
2022-12-13T06:34:35.568Z,25.70
2022-12-13T06:37:09.599Z,25.70
2022-12-13T06:39:39.631Z,25.80
2022-12-13T06:42:22.397Z,25.80
2022-12-13T06:44:56.021Z,25.80
2022-12-13T06:47:31.752Z,25.80
2022-12-13T06:50:05.461Z,25.80
2022-12-13T06:52:36.295Z,25.70
2022-12-13T06:55:06.939Z,25.70
2022-12-13T06:57:37.054Z,25.70
2022-12-13T07:00:08.213Z,25.80
2022-12-13T07:02:39.671Z,25.80
2022-12-13T07:05:10.148Z,25.90
2022-12-13T07:07:40.048Z,25.90
2022-12-13T07:10:21.586Z,26.00
2022-12-13T07:12:51.892Z,25.90
2022-12-13T07:15:21.761Z,26.00
2022-12-13T07:17:54.754Z,26.00
2022-12-13T07:20:25.187Z,26.10
2022-12-13T07:22:59.210Z,26.10
2022-12-13T07:25:30.112Z,26.00
2022-12-13T07:28:05.367Z,26.00
2022-12-13T07:30:42.461Z,26.10
2022-12-13T07:33:13.035Z,26.10
2022-12-13T07:35:55.412Z,26.10
2022-12-13T07:38:25.591Z,26.10
2022-12-13T07:40:59.795Z,26.10
2022-12-13T07:43:30.839Z,26.20
2022-12-13T07:46:07.214Z,26.20
2022-12-13T07:48:37.410Z,26.20
2022-12-13T07:51:13.531Z,26.20
2022-12-13T07:53:43.990Z,26.10
2022-12-13T07:56:14.643Z,26.20
2022-12-13T07:58:45.771Z,26.20
2022-12-13T08:01:15.741Z,26.30
2022-12-13T08:03:45.682Z,26.40
2022-12-13T08:06:15.726Z,26.40
2022-12-13T08:08:45.590Z,26.40
2022-12-13T08:11:19.892Z,26.50
2022-12-13T08:13:49.863Z,26.50
2022-12-13T08:16:26.188Z,26.50
2022-12-13T08:19:03.313Z,26.40
2022-12-13T08:22:01.292Z,26.20
2022-12-13T08:24:33.292Z,26.20
2022-12-13T08:27:05.001Z,26.30
2022-12-13T08:29:36.391Z,26.30
2022-12-13T08:32:14.690Z,26.30
2022-12-13T08:34:44.642Z,26.30
2022-12-13T08:37:15.397Z,26.20
2022-12-13T08:39:46.313Z,26.20
2022-12-13T08:42:20.068Z,26.20
2022-12-13T08:44:53.221Z,26.20
2022-12-13T08:47:26.543Z,26.20
2022-12-13T08:50:01.818Z,26.20
2022-12-13T08:52:39.311Z,26.30
2022-12-13T08:55:15.662Z,26.30
2022-12-13T08:57:46.516Z,26.30
2022-12-13T09:00:21.533Z,26.40
2022-12-13T09:02:52.320Z,26.40
2022-12-13T09:05:32.997Z,26.40
2022-12-13T09:08:24.105Z,26.40
2022-12-13T09:11:10.520Z,26.40
2022-12-13T09:13:43.847Z,26.40
2022-12-13T09:16:23.233Z,26.40
2022-12-13T09:18:56.932Z,26.40
2022-12-13T09:21:31.510Z,26.40
2022-12-13T09:24:03.005Z,26.30
2022-12-13T09:26:37.954Z,26.30
2022-12-13T09:29:10.533Z,26.20
2022-12-13T09:31:42.114Z,26.20
2022-12-13T09:34:12.956Z,26.20
2022-12-13T09:36:43.823Z,26.20
2022-12-13T09:39:13.910Z,26.10
2022-12-13T09:41:53.668Z,26.10
2022-12-13T09:44:48.186Z,26.00
2022-12-13T09:47:47.116Z,25.90
2022-12-13T09:50:28.193Z,25.80
2022-12-13T09:53:00.273Z,25.70
2022-12-13T09:55:36.383Z,25.70
2022-12-13T09:58:16.018Z,25.50
2022-12-13T10:00:46.975Z,25.50
2022-12-13T10:03:18.485Z,25.50
2022-12-13T10:06:01.802Z,25.50
2022-12-13T10:08:40.237Z,25.50
2022-12-13T10:11:13.761Z,25.50
2022-12-13T10:14:05.609Z,25.50
2022-12-13T10:16:51.370Z,25.50
2022-12-13T10:19:46.293Z,25.50
2022-12-13T10:22:21.572Z,25.40
2022-12-13T10:25:06.809Z,25.30
2022-12-13T10:27:47.912Z,25.30
2022-12-13T10:30:28.763Z,25.30
2022-12-13T10:33:05.432Z,25.20
2022-12-13T10:35:43.067Z,25.10
2022-12-13T10:38:32.512Z,25.00
2022-12-13T10:41:02.911Z,25.00
2022-12-13T10:43:33.738Z,24.90
2022-12-13T10:46:05.521Z,24.80
2022-12-13T10:48:48.902Z,24.70
2022-12-13T10:51:23.338Z,24.70
2022-12-13T10:54:00.281Z,24.50
2022-12-13T10:56:42.824Z,24.50
2022-12-13T10:59:33.733Z,24.30
2022-12-13T11:02:22.484Z,24.20
2022-12-13T11:04:53.411Z,24.10
2022-12-13T11:07:33.111Z,24.10
2022-12-13T11:10:27.960Z,24.00
2022-12-13T11:13:07.374Z,23.90
2022-12-13T11:15:40.384Z,23.80
2022-12-13T11:18:26.063Z,23.70
2022-12-13T11:21:09.475Z,23.60
2022-12-13T11:23:47.635Z,23.50
2022-12-13T11:26:24.012Z,23.50
2022-12-13T11:29:29.447Z,23.40
2022-12-13T11:32:22.757Z,23.30
2022-12-13T11:35:15.229Z,23.20
2022-12-13T11:38:24.515Z,23.10
2022-12-13T11:41:31.138Z,23.00
2022-12-13T11:44:11.434Z,22.90
2022-12-13T11:46:53.618Z,22.90
2022-12-13T11:49:44.471Z,22.80
2022-12-13T11:52:53.287Z,22.70
2022-12-13T11:55:38.834Z,22.70
2022-12-13T12:01:42.040Z,22.50
2022-12-13T12:04:53.718Z,22.50
2022-12-13T12:08:21.002Z,22.40
2022-12-13T12:10:49.788Z,22.30
2022-12-13T12:13:26.577Z,22.20
2022-12-13T12:16:28.246Z,22.20
2022-12-13T12:19:01.793Z,22.10
2022-12-13T12:22:15.091Z,22.00
2022-12-13T12:25:09.633Z,22.00
2022-12-13T12:28:08.755Z,21.90
2022-12-13T12:31:11.787Z,21.90
2022-12-13T12:34:12.524Z,21.80
2022-12-13T12:37:11.577Z,21.70
2022-12-13T12:40:07.672Z,21.80
2022-12-13T12:43:16.456Z,21.70
2022-12-13T12:46:25.532Z,21.70
2022-12-13T12:49:34.366Z,21.60
2022-12-13T12:52:39.168Z,21.60
2022-12-13T12:55:35.805Z,21.50
2022-12-13T12:58:44.648Z,21.50
2022-12-13T13:01:53.618Z,21.40
2022-12-13T13:04:29.244Z,21.30
2022-12-13T13:07:23.145Z,21.30
2022-12-13T13:09:55.747Z,21.20
2022-12-13T13:12:29.500Z,21.20
2022-12-13T13:15:00.715Z,21.20
2022-12-13T13:17:49.826Z,21.10
2022-12-13T13:20:30.095Z,21.10
2022-12-13T13:23:38.785Z,21.00
2022-12-13T13:26:23.450Z,21.00
2022-12-13T13:28:47.519Z,20.90
2022-12-13T13:31:17.764Z,20.80
2022-12-13T13:33:53.148Z,20.80
2022-12-13T13:36:50.262Z,20.70
2022-12-13T13:39:22.185Z,20.70
2022-12-13T13:42:19.217Z,20.70
2022-12-13T13:45:03.400Z,20.70
2022-12-13T13:47:42.939Z,20.60
2022-12-13T13:50:51.812Z,20.60
2022-12-13T13:53:57.593Z,20.60
2022-12-13T13:56:55.197Z,20.50
2022-12-13T14:00:03.850Z,20.50
2022-12-13T14:03:22.214Z,20.40
2022-12-13T14:06:32.586Z,20.40
2022-12-13T14:09:41.705Z,20.30
2022-12-13T14:12:50.390Z,20.30
2022-12-13T14:15:59.433Z,20.30
2022-12-13T14:19:08.222Z,20.30
2022-12-13T14:22:04.074Z,20.30
2022-12-13T14:25:12.799Z,20.30
2022-12-13T14:28:04.485Z,20.20
2022-12-13T14:30:35.135Z,20.20
2022-12-13T14:33:05.128Z,20.20
2022-12-13T14:35:36.075Z,20.20
2022-12-13T14:38:08.395Z,20.10
2022-12-13T14:40:49.324Z,20.10
2022-12-13T14:43:33.635Z,20.10
2022-12-13T14:46:06.342Z,20.00
2022-12-13T14:48:47.784Z,20.00
2022-12-13T14:51:39.523Z,20.00
2022-12-13T14:54:16.895Z,19.90
2022-12-13T14:57:06.714Z,19.90
2022-12-13T14:59:36.682Z,19.90
2022-12-13T15:02:08.693Z,19.80
2022-12-13T15:04:39.501Z,19.80
2022-12-13T15:07:15.241Z,19.80
2022-12-13T15:09:47.765Z,19.80
2022-12-13T15:12:24.233Z,19.70
2022-12-13T15:15:08.241Z,19.70
2022-12-13T15:17:40.457Z,19.70
2022-12-13T15:20:32.198Z,19.60
2022-12-13T15:23:09.477Z,19.60
2022-12-13T15:25:40.336Z,19.60
2022-12-13T15:28:18.168Z,19.60
2022-12-13T15:30:50.557Z,19.60
2022-12-13T15:33:34.420Z,19.50
2022-12-13T15:36:20.795Z,19.60
2022-12-13T15:39:03.279Z,19.50
2022-12-13T15:41:44.467Z,19.40
2022-12-13T15:44:25.535Z,19.40
2022-12-13T15:47:10.299Z,19.40
2022-12-13T15:50:03.648Z,19.30
2022-12-13T15:52:48.559Z,19.30
2022-12-13T15:55:28.999Z,19.30
2022-12-13T15:58:00.500Z,19.30
2022-12-13T16:00:33.058Z,19.30
2022-12-13T16:03:16.659Z,19.20
2022-12-13T16:05:56.640Z,19.20
2022-12-13T16:08:37.317Z,19.20
2022-12-13T16:11:08.830Z,19.20
2022-12-13T16:13:40.335Z,19.20
2022-12-13T16:16:31.893Z,19.10
2022-12-13T16:19:03.218Z,19.10
2022-12-13T16:21:32.784Z,19.10
2022-12-13T16:24:02.331Z,19.10
2022-12-13T16:26:33.068Z,19.00
2022-12-13T16:29:02.884Z,19.00
2022-12-13T16:31:37.116Z,19.00
2022-12-13T16:34:08.735Z,19.00
2022-12-13T16:36:38.513Z,19.00
2022-12-13T16:39:12.183Z,18.90
2022-12-13T16:41:48.033Z,18.90
2022-12-13T16:44:42.909Z,18.90
2022-12-13T16:47:22.154Z,18.90
2022-12-13T16:50:04.395Z,18.90
2022-12-13T16:52:34.284Z,18.80
2022-12-13T16:55:04.235Z,18.80
2022-12-13T16:57:33.971Z,18.80
2022-12-13T17:00:03.710Z,18.80
2022-12-13T17:02:33.322Z,18.80
2022-12-13T17:05:02.942Z,18.80
2022-12-13T17:07:37.158Z,18.70
2022-12-13T17:10:07.089Z,18.70
2022-12-13T17:12:36.659Z,18.70
2022-12-13T17:15:06.831Z,18.70
2022-12-13T17:17:38.282Z,18.70
2022-12-13T17:20:10.760Z,18.70
2022-12-13T17:22:40.673Z,18.70
2022-12-13T17:25:11.083Z,18.70
2022-12-13T17:27:42.052Z,18.70
2022-12-13T17:30:16.818Z,18.70
2022-12-13T17:32:46.792Z,18.70
2022-12-13T17:35:18.286Z,18.70
2022-12-13T17:37:49.524Z,18.80
2022-12-13T17:40:19.876Z,18.70
2022-12-13T17:42:53.737Z,18.80
2022-12-13T17:45:24.769Z,18.80
2022-12-13T17:47:54.730Z,18.70
2022-12-13T17:50:24.644Z,18.70
2022-12-13T17:52:54.555Z,18.70
2022-12-13T17:55:24.539Z,18.70
2022-12-13T17:57:56.499Z,18.70
2022-12-13T18:00:27.438Z,18.80
2022-12-13T18:02:57.374Z,18.80
2022-12-13T18:05:27.963Z,18.80
2022-12-13T18:07:57.915Z,18.80
2022-12-13T18:10:30.085Z,18.80
2022-12-13T18:13:00.641Z,18.80
2022-12-13T18:15:30.338Z,18.80
2022-12-13T18:18:15.426Z,18.80
2022-12-13T18:20:46.088Z,18.80
2022-12-13T18:23:16.375Z,18.80
2022-12-13T18:25:46.155Z,18.80
2022-12-13T18:28:15.924Z,18.80
2022-12-13T18:30:45.626Z,18.80
2022-12-13T18:33:15.339Z,18.90
2022-12-13T18:35:45.152Z,18.90
2022-12-13T18:38:15.570Z,18.90
2022-12-13T18:40:45.799Z,18.90
2022-12-13T18:43:15.718Z,18.90
2022-12-13T18:45:45.979Z,18.90
2022-12-13T18:48:16.176Z,18.90
2022-12-13T18:50:48.919Z,18.80
2022-12-13T18:53:19.008Z,18.70
2022-12-13T18:55:48.912Z,18.70
2022-12-13T18:58:18.993Z,18.70
2022-12-13T19:00:49.071Z,18.70
2022-12-13T19:03:19.173Z,18.70
2022-12-13T19:05:49.149Z,18.70
2022-12-13T19:08:18.890Z,18.60
2022-12-13T19:10:49.766Z,18.60
2022-12-13T19:13:19.433Z,18.60
2022-12-13T19:15:49.082Z,18.60
2022-12-13T19:18:18.738Z,18.60
2022-12-13T19:20:55.323Z,18.60
2022-12-13T19:23:25.235Z,18.50
2022-12-13T19:25:55.367Z,18.50
2022-12-13T19:28:25.324Z,18.50
2022-12-13T19:30:55.065Z,18.50
2022-12-13T19:33:24.978Z,18.50
2022-12-13T19:35:54.853Z,18.40
2022-12-13T19:38:25.416Z,18.40
2022-12-13T19:40:55.900Z,18.40
2022-12-13T19:43:26.279Z,18.40
2022-12-13T19:45:56.460Z,18.40
2022-12-13T19:48:26.496Z,18.40
2022-12-13T19:51:01.944Z,18.30
2022-12-13T19:53:32.722Z,18.30
2022-12-13T19:56:02.940Z,18.30
2022-12-13T19:58:32.940Z,18.30
2022-12-13T20:01:06.988Z,18.30
2022-12-13T20:03:43.252Z,18.30
2022-12-13T20:06:15.072Z,18.30
2022-12-13T20:08:45.259Z,18.30
2022-12-13T20:11:20.725Z,18.20
2022-12-13T20:13:51.906Z,18.20
2022-12-13T20:16:24.354Z,18.20
2022-12-13T20:18:59.824Z,18.20
2022-12-13T20:21:30.868Z,18.10
2022-12-13T20:24:00.925Z,18.10
2022-12-13T20:26:32.953Z,18.20
2022-12-13T20:29:02.648Z,18.10
2022-12-13T20:31:35.345Z,18.10
2022-12-13T20:34:08.349Z,18.10
2022-12-13T20:36:38.485Z,18.10
2022-12-13T20:39:09.758Z,18.10
2022-12-13T20:41:40.207Z,18.10
2022-12-13T20:44:11.355Z,18.10
2022-12-13T20:46:41.408Z,18.10
2022-12-13T20:49:11.846Z,18.10
2022-12-13T20:51:43.431Z,18.00
2022-12-13T20:54:13.160Z,18.00
2022-12-13T20:56:42.968Z,18.00
2022-12-13T20:59:14.966Z,18.00
2022-12-13T21:01:48.905Z,18.00
2022-12-13T21:04:19.159Z,17.90
2022-12-13T21:06:48.749Z,17.90
2022-12-13T21:09:18.587Z,17.90
2022-12-13T21:11:51.545Z,17.90
2022-12-13T21:14:31.814Z,17.80
2022-12-13T21:17:03.957Z,17.80
2022-12-13T21:19:39.357Z,17.80
2022-12-13T21:22:10.356Z,17.80
2022-12-13T21:24:40.278Z,17.80
2022-12-13T21:27:10.227Z,17.80
2022-12-13T21:29:40.201Z,17.70
2022-12-13T21:32:10.641Z,17.70
2022-12-13T21:34:41.498Z,17.70
2022-12-13T21:37:11.492Z,17.70
2022-12-13T21:39:42.153Z,17.70
2022-12-13T21:42:12.308Z,17.60
2022-12-13T21:44:42.276Z,17.60
2022-12-13T21:47:13.205Z,17.60
2022-12-13T21:49:48.695Z,17.60
2022-12-13T21:52:19.256Z,17.60
2022-12-13T21:54:52.780Z,17.50
2022-12-13T21:57:45.296Z,17.50
2022-12-13T22:00:16.160Z,17.50
2022-12-13T22:02:47.119Z,17.50
2022-12-13T22:05:17.059Z,17.50
2022-12-13T22:07:48.241Z,17.50
2022-12-13T22:10:17.911Z,17.50
2022-12-13T22:12:47.587Z,17.40
2022-12-13T22:15:17.997Z,17.40
2022-12-13T22:17:47.611Z,17.30
2022-12-13T22:20:17.877Z,17.30
2022-12-13T22:22:50.123Z,17.30
2022-12-13T22:25:20.504Z,17.20
2022-12-13T22:27:50.133Z,17.20
2022-12-13T22:30:19.862Z,17.30
2022-12-13T22:32:49.550Z,17.20
2022-12-13T22:35:19.196Z,17.20
2022-12-13T22:37:51.743Z,17.20
2022-12-13T22:40:23.096Z,17.20
2022-12-13T22:42:53.352Z,17.20
2022-12-13T22:45:23.239Z,17.20
2022-12-13T22:47:53.187Z,17.20
2022-12-13T22:50:23.170Z,17.20
2022-12-13T22:52:53.105Z,17.20
2022-12-13T22:55:23.185Z,17.20
2022-12-13T22:57:53.395Z,17.20
2022-12-13T23:00:23.439Z,17.20
2022-12-13T23:02:56.278Z,17.20
2022-12-13T23:05:26.256Z,17.20
2022-12-13T23:07:56.205Z,17.20
2022-12-13T23:10:45.464Z,17.20
2022-12-13T23:13:18.044Z,17.20
2022-12-13T23:15:49.441Z,17.20
2022-12-13T23:18:19.277Z,17.10
2022-12-13T23:20:49.059Z,17.10
2022-12-13T23:23:18.716Z,17.10
2022-12-13T23:25:48.954Z,17.10
2022-12-13T23:28:18.884Z,17.10
2022-12-13T23:30:48.533Z,17.10
2022-12-13T23:33:18.177Z,17.10
2022-12-13T23:35:47.889Z,17.10
2022-12-13T23:38:17.476Z,17.10
2022-12-13T23:40:48.204Z,17.10
2022-12-13T23:43:18.445Z,17.10
2022-12-13T23:45:48.395Z,17.10
2022-12-13T23:48:22.364Z,17.10
2022-12-13T23:50:55.804Z,17.10
2022-12-13T23:53:26.131Z,17.00
2022-12-13T23:55:56.109Z,17.10
2022-12-13T23:58:27.670Z,17.10
